TAU YSSY-YSSY
Flight info
| Callsign | TAU |
|---|---|
| Flight time | 0h 13m |
| Altitude | 3000 |
| Route | CCTS |
| Aircraft | P28A/L-SDFRY/C |
Departure
| Time | 2026-04-24 13:09 |
|---|---|
| Airport | Sydney Kingsford Smith International Airport (YSSY) |
Arrival
| Time | 2026-04-24 13:22 |
|---|---|
| Airport | Sydney Kingsford Smith International Airport (YSSY) |
| Time | Latitude | Longitude | Altitude | Speed | Heading |
|---|---|---|---|---|---|
| 2026-04-24 12:56 | -33.93478 | 151.19018 | 24 ft | 0 kts | 345° |
| 2026-04-24 13:04 | -33.93476 | 151.19019 | 24 ft | 4 kts | 52° |
| 2026-04-24 13:04 | -33.93520 | 151.19045 | 21 ft | 9 kts | 168° |
| 2026-04-24 13:04 | -33.93565 | 151.19011 | 20 ft | 8 kts | 227° |
| 2026-04-24 13:04 | -33.93601 | 151.18960 | 20 ft | 7 kts | 233° |
| 2026-04-24 13:05 | -33.93645 | 151.18944 | 19 ft | 8 kts | 165° |
| 2026-04-24 13:05 | -33.93654 | 151.18947 | 19 ft | 0 kts | 164° |
| 2026-04-24 13:06 | -33.93656 | 151.18948 | 19 ft | 3 kts | 164° |
| 2026-04-24 13:07 | -33.93728 | 151.18961 | 19 ft | 12 kts | 195° |
| 2026-04-24 13:07 | -33.93769 | 151.18924 | 20 ft | 0 kts | 255° |
| 2026-04-24 13:08 | -33.93794 | 151.18811 | 20 ft | 45 kts | 254° |
| 2026-04-24 13:08 | -33.94041 | 151.18560 | 178 ft | 74 kts | 139° |
| 2026-04-24 13:09 | -33.94034 | 151.20187 | 534 ft | 123 kts | 92° |
| 2026-04-24 13:09 | -33.94091 | 151.21253 | 735 ft | 132 kts | 95° |
| 2026-04-24 13:09 | -33.94089 | 151.22364 | 944 ft | 131 kts | 65° |
| 2026-04-24 13:09 | -33.93388 | 151.22302 | 1270 ft | 127 kts | 293° |
| 2026-04-24 13:10 | -33.93346 | 151.21146 | 949 ft | 142 kts | 269° |
| 2026-04-24 13:10 | -33.93507 | 151.20040 | 538 ft | 121 kts | 250° |
| 2026-04-24 13:10 | -33.93719 | 151.19135 | 191 ft | 108 kts | 253° |
| 2026-04-24 13:10 | -33.93903 | 151.18284 | 305 ft | 100 kts | 248° |
| 2026-04-24 13:11 | -33.94484 | 151.18148 | 658 ft | 102 kts | 155° |
| 2026-04-24 13:11 | -33.94428 | 151.19025 | 703 ft | 128 kts | 78° |
| 2026-04-24 13:11 | -33.94243 | 151.20056 | 984 ft | 128 kts | 78° |
| 2026-04-24 13:11 | -33.94074 | 151.21143 | 1176 ft | 133 kts | 79° |
| 2026-04-24 13:12 | -33.93944 | 151.22149 | 1199 ft | 114 kts | 81° |
| 2026-04-24 13:12 | -33.93769 | 151.22975 | 1315 ft | 90 kts | 40° |
| 2026-04-24 13:12 | -33.93199 | 151.22914 | 1297 ft | 96 kts | 310° |
| 2026-04-24 13:12 | -33.93155 | 151.22106 | 1182 ft | 106 kts | 262° |
| 2026-04-24 13:13 | -33.92720 | 151.21549 | 1062 ft | 125 kts | 357° |
| 2026-04-24 13:13 | -33.92032 | 151.22141 | 899 ft | 142 kts | 76° |
| 2026-04-24 13:13 | -33.92218 | 151.23160 | 1162 ft | 134 kts | 145° |
| 2026-04-24 13:13 | -33.93016 | 151.22854 | 1124 ft | 132 kts | 248° |
| 2026-04-24 13:14 | -33.93149 | 151.21716 | 894 ft | 138 kts | 265° |
| 2026-04-24 13:14 | -33.93365 | 151.20643 | 573 ft | 124 kts | 255° |
| 2026-04-24 13:14 | -33.93593 | 151.19656 | 263 ft | 121 kts | 255° |
| 2026-04-24 13:14 | -33.93818 | 151.18728 | 41 ft | 114 kts | 259° |
| 2026-04-24 13:15 | -33.94080 | 151.17844 | 336 ft | 113 kts | 221° |
| 2026-04-24 13:15 | -33.94799 | 151.18053 | 526 ft | 122 kts | 123° |
| 2026-04-24 13:15 | -33.94601 | 151.19093 | 506 ft | 133 kts | 67° |
| 2026-04-24 13:15 | -33.94339 | 151.20140 | 570 ft | 130 kts | 78° |
| 2026-04-24 13:16 | -33.93888 | 151.20951 | 486 ft | 131 kts | 359° |
| 2026-04-24 13:16 | -33.93199 | 151.20530 | 572 ft | 125 kts | 263° |
| 2026-04-24 13:16 | -33.93606 | 151.19597 | 326 ft | 120 kts | 261° |
| 2026-04-24 13:16 | -33.93807 | 151.18749 | 30 ft | 97 kts | 257° |
| 2026-04-24 13:17 | -33.94031 | 151.18089 | 307 ft | 81 kts | 213° |
| 2026-04-24 13:17 | -33.94615 | 151.18249 | 411 ft | 89 kts | 146° |
| 2026-04-24 13:17 | -33.94568 | 151.18938 | 462 ft | 93 kts | 63° |
| 2026-04-24 13:17 | -33.94403 | 151.19676 | 591 ft | 91 kts | 75° |
| 2026-04-24 13:18 | -33.94137 | 151.20333 | 635 ft | 89 kts | 57° |
| 2026-04-24 13:18 | -33.93673 | 151.20595 | 606 ft | 89 kts | 351° |
| 2026-04-24 13:18 | -33.93443 | 151.20024 | 388 ft | 103 kts | 234° |
| 2026-04-24 13:18 | -33.93703 | 151.19252 | 190 ft | 103 kts | 258° |
| 2026-04-24 13:19 | -33.93872 | 151.18492 | 230 ft | 65 kts | 258° |
| 2026-04-24 13:19 | -33.94307 | 151.18430 | 378 ft | 83 kts | 165° |
| 2026-04-24 13:19 | -33.94407 | 151.19047 | 429 ft | 90 kts | 86° |
| 2026-04-24 13:19 | -33.94133 | 151.19624 | 417 ft | 95 kts | 355° |
| 2026-04-24 13:20 | -33.93747 | 151.19222 | 170 ft | 80 kts | 275° |
| 2026-04-24 13:20 | -33.93844 | 151.18611 | 112 ft | 68 kts | 256° |
| 2026-04-24 13:20 | -33.94292 | 151.18650 | 316 ft | 76 kts | 139° |
| 2026-04-24 13:20 | -33.94118 | 151.19239 | 316 ft | 86 kts | 12° |
| 2026-04-24 13:21 | -33.93763 | 151.18940 | 83 ft | 71 kts | 254° |
| 2026-04-24 13:21 | -33.93888 | 151.18396 | 201 ft | 71 kts | 260° |
| 2026-04-24 13:21 | -33.94325 | 151.18457 | 345 ft | 80 kts | 123° |
| 2026-04-24 13:21 | -33.94227 | 151.19189 | 265 ft | 77 kts | 77° |
| 2026-04-24 13:22 | -33.93977 | 151.19515 | 245 ft | 57 kts | 349° |
| 2026-04-24 13:22 | -33.93726 | 151.19234 | 150 ft | 70 kts | 259° |
| 2026-04-24 13:22 | -33.93833 | 151.18682 | 105 ft | 55 kts | 252° |
| 2026-04-24 13:22 | -33.94008 | 151.18640 | 22 ft | 0 kts | 194° |
| 2026-04-24 13:25 | -33.94006 | 151.18635 | 22 ft | 2 kts | 352° |
| 2026-04-24 13:25 | -33.93975 | 151.18650 | 22 ft | 11 kts | 32° |
| 2026-04-24 13:25 | -33.93895 | 151.18710 | 21 ft | 14 kts | 355° |
| 2026-04-24 13:26 | -33.93865 | 151.18718 | 20 ft | 0 kts | 17° |
| 2026-04-24 13:28 | -33.93864 | 151.18718 | 20 ft | 1 kts | 20° |
| 2026-04-24 13:28 | -33.93836 | 151.18753 | 20 ft | 1 kts | 55° |
| 2026-04-24 13:28 | -33.93835 | 151.18754 | 20 ft | 0 kts | 50° |
| 2026-04-24 13:28 | -33.93727 | 151.18830 | 21 ft | 26 kts | 359° |
| 2026-04-24 13:29 | -33.93599 | 151.18846 | 25 ft | 17 kts | 81° |
| 2026-04-24 13:29 | -33.93661 | 151.18949 | 19 ft | 4 kts | 165° |
| 2026-04-24 13:29 | -33.93661 | 151.18950 | 19 ft | 0 kts | 168° |